Time;durP1;ratioP1;P1;durP2;ratioP2;P2;SDS_P1;SDS_P2;PMS_P1;PMS_P2;Temp;Humidity;BMP_temperature;BMP_pressure;BME280_temperature;BME280_humidity;BME280_pressure;Samples;Min_cycle;Max_cycle;Signal;HPM_P1;HPM_P2
2021/03/19 04:35:12;;;;;;;28.45;17.27;;;2.80;94.70;;;;;;4951619;29;20236;-81
2021/03/19 04:37:41;;;;;;;28.92;18.55;;;2.80;94.50;;;;;;4940530;29;20235;-80
2021/03/19 04:43:00;;;;;;;29.00;19.30;;;2.90;94.30;;;;;;4941398;29;20235;-80
2021/03/19 04:45:27;;;;;;;24.48;17.10;;;2.90;94.10;;;;;;4941751;29;20207;-80
2021/03/19 04:47:54;;;;;;;24.60;16.55;;;2.80;93.90;;;;;;4942202;29;20264;-79
2021/03/19 04:50:23;;;;;;;28.42;18.70;;;2.90;93.90;;;;;;4942373;29;20196;-80
2021/03/19 04:52:52;;;;;;;28.45;17.85;;;2.90;93.80;;;;;;4942455;29;20205;-80
2021/03/19 04:55:19;;;;;;;27.02;18.13;;;2.90;93.20;;;;;;4942171;29;20211;-80
2021/03/19 04:57:46;;;;;;;30.65;17.60;;;2.80;93.30;;;;;;4942136;29;20196;-80
2021/03/19 05:00:15;;;;;;;26.90;18.25;;;2.80;93.50;;;;;;4942424;29;20208;-80
2021/03/19 05:02:44;;;;;;;22.40;15.68;;;2.90;93.50;;;;;;4942037;29;20246;-78
2021/03/19 05:05:14;;;;;;;25.88;16.25;;;2.90;93.40;;;;;;4941603;29;20183;-80
2021/03/19 05:07:41;;;;;;;26.45;16.58;;;2.90;92.60;;;;;;4941975;29;20191;-81
2021/03/19 05:10:10;;;;;;;26.23;17.27;;;2.90;92.60;;;;;;4941729;29;20211;-79
2021/03/19 05:12:36;;;;;;;25.50;16.67;;;2.90;92.60;;;;;;4941417;29;20203;-80
2021/03/19 05:15:05;;;;;;;25.27;17.02;;;2.80;92.60;;;;;;4940545;29;20231;-80
2021/03/19 05:17:33;;;;;;;27.33;17.75;;;2.80;92.90;;;;;;4941527;29;20196;-80
2021/03/19 05:20:01;;;;;;;33.50;18.60;;;2.80;93.20;;;;;;4941562;29;20187;-80
2021/03/19 05:22:28;;;;;;;27.13;16.77;;;2.90;93.00;;;;;;4941768;29;20248;-79
2021/03/19 05:24:55;;;;;;;29.02;18.02;;;2.80;92.90;;;;;;4941761;29;20195;-79
2021/03/19 05:27:24;;;;;;;24.13;16.45;;;2.80;93.10;;;;;;4941651;29;20316;-78
2021/03/19 05:29:52;;;;;;;27.88;18.35;;;2.80;93.30;;;;;;4941696;29;20220;-79
2021/03/19 05:32:19;;;;;;;33.75;18.23;;;2.80;93.30;;;;;;4941494;29;20332;-79
2021/03/19 05:34:46;;;;;;;26.98;17.60;;;2.80;93.50;;;;;;4941323;29;20183;-81
2021/03/19 05:37:12;;;;;;;26.50;16.23;;;2.70;93.10;;;;;;4941363;29;20298;-80
2021/03/19 05:39:39;;;;;;;31.63;19.45;;;2.70;93.50;;;;;;4941017;29;20230;-79
2021/03/19 05:42:14;;;;;;;23.77;16.92;;;2.70;93.70;;;;;;4941247;29;20201;-80
2021/03/19 05:44:45;;;;;;;27.05;17.33;;;2.80;93.80;;;;;;4941224;29;20202;-80
2021/03/19 05:47:13;;;;;;;29.95;17.17;;;2.70;93.60;;;;;;4940820;29;20340;-78
2021/03/19 05:49:40;;;;;;;30.92;16.92;;;2.80;93.60;;;;;;4940660;29;20187;-80
2021/03/19 05:52:22;;;;;;;26.83;16.77;;;2.70;93.60;;;;;;4940874;29;20226;-79
2021/03/19 05:54:50;;;;;;;28.08;16.70;;;2.80;93.40;;;;;;4941098;29;20194;-80
2021/03/19 05:57:23;;;;;;;28.15;17.38;;;2.70;93.40;;;;;;4941379;29;20223;-80
2021/03/19 05:59:51;;;;;;;28.52;17.30;;;2.70;93.30;;;;;;4941512;29;20219;-80
2021/03/19 06:02:21;;;;;;;30.83;18.38;;;2.70;93.70;;;;;;4925212;29;20204;-80
2021/03/19 06:05:08;;;;;;;27.95;19.00;;;2.70;94.00;;;;;;4933539;29;20239;-80
2021/03/19 06:07:43;;;;;;;32.58;18.98;;;2.70;94.40;;;;;;4927619;29;20223;-79
2021/03/19 06:10:29;;;;;;;30.55;18.58;;;2.70;95.10;;;;;;4940860;29;20239;-79
2021/03/19 06:13:11;;;;;;;29.65;17.38;;;2.70;95.10;;;;;;4938339;29;20183;-80
2021/03/19 06:15:40;;;;;;;30.42;17.65;;;2.70;95.10;;;;;;4938747;29;20211;-80
2021/03/19 06:21:33;;;;;;;36.55;20.02;;;2.80;95.90;;;;;;4937391;29;20211;-80
2021/03/19 06:24:34;;;;;;;31.35;17.80;;;2.90;96.00;;;;;;4935566;29;20577;-81
2021/03/19 06:27:55;;;;;;;37.33;20.13;;;2.90;95.80;;;;;;4931881;29;20238;-82
2021/03/19 06:30:33;;;;;;;33.47;19.48;;;2.70;96.00;;;;;;4930605;29;20215;-82
2021/03/19 06:33:05;;;;;;;38.90;19.83;;;2.60;96.20;;;;;;4938817;29;20202;-82
2021/03/19 06:35:36;;;;;;;37.20;20.40;;;2.80;96.70;;;;;;4933749;29;20239;-81
2021/03/19 06:38:29;;;;;;;31.20;17.50;;;2.90;96.80;;;;;;4933336;29;20207;-82
2021/03/19 06:40:56;;;;;;;34.05;19.30;;;3.00;96.70;;;;;;4929311;29;20219;-81
2021/03/19 06:43:26;;;;;;;33.33;19.35;;;3.00;96.20;;;;;;4939545;29;20215;-80
2021/03/19 06:49:25;;;;;;;30.50;18.42;;;2.80;96.00;;;;;;4939885;29;20267;-83
2021/03/19 06:51:59;;;;;;;32.75;18.60;;;2.90;96.10;;;;;;4941029;29;20201;-82
2021/03/19 09:08:26;;;;;;;32.42;17.48;;;3.30;95.50;;;;;;4920382;29;20188;-81
2021/03/19 09:11:02;;;;;;;31.25;16.33;;;3.40;95.30;;;;;;4922932;29;20188;-79
2021/03/19 09:13:29;;;;;;;25.55;14.57;;;3.70;95.20;;;;;;4922464;29;20215;-80
2021/03/19 09:15:57;;;;;;;24.42;15.10;;;3.80;94.50;;;;;;4922945;29;20220;-79
2021/03/19 09:18:47;;;;;;;25.92;16.00;;;3.90;93.00;;;;;;4922909;29;20240;-80
2021/03/19 09:21:30;;;;;;;25.77;16.23;;;3.90;92.10;;;;;;4922917;29;20211;-79
2021/03/19 09:24:17;;;;;;;30.58;17.20;;;3.70;91.30;;;;;;4922710;29;20208;-80
2021/03/19 09:26:50;;;;;;;29.33;16.00;;;3.70;90.70;;;;;;4921119;29;20224;-81
2021/03/19 09:29:36;;;;;;;27.95;17.15;;;3.70;90.70;;;;;;4922733;29;20220;-81
2021/03/19 09:32:39;;;;;;;28.17;18.00;;;3.60;91.10;;;;;;4922563;29;20195;-80
2021/03/19 09:35:29;;;;;;;29.45;18.02;;;3.60;91.10;;;;;;4922844;29;20259;-79
2021/03/19 09:37:56;;;;;;;29.90;18.50;;;3.70;91.20;;;;;;4919260;29;20196;-80
2021/03/19 09:43:51;;;;;;;31.35;17.90;;;3.60;92.30;;;;;;4906723;29;20202;-80
2021/03/19 09:46:40;;;;;;;32.08;19.02;;;3.70;91.70;;;;;;4915040;29;20251;-80
2021/03/19 10:42:45;;;;;;;7.00;6.00;;;3.80;83.80;;;;;;4938515;29;20290;-81
2021/03/19 10:46:00;;;;;;;8.23;6.50;;;3.70;84.90;;;;;;4939847;29;20199;-81
2021/03/19 16:02:30;;;;;;;6.45;5.25;;;6.10;52.90;;;;;;4958008;29;20199;-78
2021/03/19 16:04:59;;;;;;;5.28;4.53;;;5.80;53.30;;;;;;4957206;29;20214;-80
2021/03/19 16:07:29;;;;;;;5.40;4.22;;;5.50;54.00;;;;;;4929816;29;20227;-79
2021/03/19 16:09:59;;;;;;;6.30;4.40;;;5.40;53.40;;;;;;4938977;29;20192;-79
2021/03/19 17:13:12;;;;;;;3.45;2.78;;;4.80;38.90;;;;;;4920418;29;20207;-81
2021/03/19 17:15:42;;;;;;;3.88;3.17;;;4.70;39.40;;;;;;4920803;29;20250;-81
2021/03/19 17:18:10;;;;;;;5.47;3.10;;;4.70;40.80;;;;;;4906184;29;20216;-81
2021/03/19 17:21:11;;;;;;;;;;;;;;;;;;;;;
2021/03/19 17:23:39;;;;;;;3.25;2.80;;;4.50;41.90;;;;;;4896348;29;20275;-81
2021/03/19 17:26:07;;;;;;;4.75;3.55;;;4.40;41.90;;;;;;4914880;29;20243;-80
2021/03/19 17:28:35;;;;;;;3.10;2.65;;;4.40;42.30;;;;;;4918882;29;20215;-81
2021/03/19 17:31:03;;;;;;;4.57;3.15;;;4.30;42.50;;;;;;4921608;29;20211;-79
2021/03/19 17:33:32;;;;;;;4.20;3.50;;;4.30;42.70;;;;;;4920991;29;20208;-81
2021/03/19 17:35:59;;;;;;;4.32;3.40;;;4.30;43.80;;;;;;4920571;29;20251;-80
2021/03/19 17:38:27;;;;;;;3.78;3.33;;;4.30;43.30;;;;;;4921233;29;20219;-80
2021/03/19 17:40:58;;;;;;;5.22;3.58;;;4.30;43.60;;;;;;4920964;29;20204;-80
2021/03/19 17:43:28;;;;;;;3.65;3.10;;;4.20;43.70;;;;;;4919916;29;20212;-81
2021/03/19 17:45:59;;;;;;;6.15;3.45;;;4.20;44.10;;;;;;4918271;29;20236;-82
2021/03/19 17:48:28;;;;;;;4.43;3.28;;;4.10;44.70;;;;;;4917677;29;20219;-80
2021/03/19 17:50:56;;;;;;;4.97;3.13;;;4.10;44.10;;;;;;4915346;29;20227;-80
2021/03/19 17:53:24;;;;;;;4.43;3.70;;;4.00;44.10;;;;;;4915352;29;20222;-80
2021/03/19 17:55:51;;;;;;;5.40;3.53;;;3.90;43.60;;;;;;4917118;29;20242;-80
2021/03/19 17:58:18;;;;;;;4.65;3.30;;;3.80;44.80;;;;;;4916101;29;20710;-80
2021/03/19 18:00:45;;;;;;;4.85;3.08;;;3.80;43.40;;;;;;4916841;29;20212;-81
2021/03/19 18:03:12;;;;;;;4.53;3.60;;;3.70;43.50;;;;;;4915382;29;20207;-81
2021/03/19 18:05:40;;;;;;;4.40;3.20;;;3.60;43.90;;;;;;4916450;29;20231;-79
2021/03/19 18:08:07;;;;;;;7.45;3.53;;;3.60;43.60;;;;;;4915212;29;20318;-81
2021/03/19 18:10:34;;;;;;;6.95;4.00;;;3.50;43.70;;;;;;4914787;29;20219;-80
2021/03/19 18:13:01;;;;;;;6.40;4.22;;;3.50;43.60;;;;;;4917952;29;20223;-80
2021/03/19 18:15:28;;;;;;;6.57;4.25;;;3.50;43.90;;;;;;4918794;29;20212;-81
2021/03/19 18:17:55;;;;;;;7.03;4.47;;;3.40;43.80;;;;;;4917718;29;20219;-81
2021/03/19 18:20:26;;;;;;;5.88;3.95;;;3.40;44.40;;;;;;4920076;29;20196;-80
2021/03/19 18:22:53;;;;;;;6.15;4.20;;;3.40;44.40;;;;;;4920139;29;20219;-81
2021/03/19 18:25:23;;;;;;;5.72;3.72;;;3.30;44.40;;;;;;4919610;29;20219;-79
2021/03/19 18:27:52;;;;;;;5.85;4.25;;;3.30;44.40;;;;;;4916631;29;20317;-81
2021/03/19 18:30:21;;;;;;;5.95;4.50;;;3.10;44.20;;;;;;4918911;29;20220;-81
2021/03/19 18:32:47;;;;;;;6.57;4.55;;;3.00;44.20;;;;;;4919016;29;20211;-79
2021/03/19 18:35:14;;;;;;;4.85;3.50;;;3.00;44.80;;;;;;4921187;29;20216;-79
2021/03/19 18:37:42;;;;;;;5.63;4.45;;;2.90;45.40;;;;;;4921501;29;20199;-80
2021/03/19 18:40:12;;;;;;;4.85;3.65;;;2.90;45.50;;;;;;4916589;29;20200;-80
2021/03/19 18:42:39;;;;;;;5.43;4.10;;;2.70;46.20;;;;;;4916225;29;20208;-80
2021/03/19 18:45:08;;;;;;;6.85;5.15;;;2.70;46.40;;;;;;4917158;29;20215;-80
2021/03/19 18:47:34;;;;;;;6.55;4.45;;;2.70;46.70;;;;;;4917707;29;20228;-80
2021/03/19 18:50:01;;;;;;;5.68;4.75;;;2.60;47.00;;;;;;4918276;29;20232;-80
2021/03/19 18:52:28;;;;;;;5.63;4.13;;;2.50;47.00;;;;;;4917150;29;20192;-81
2021/03/19 18:54:55;;;;;;;5.75;4.22;;;2.50;47.00;;;;;;4916586;29;20229;-83
2021/03/19 18:57:22;;;;;;;6.32;4.80;;;2.50;46.60;;;;;;4914097;29;20208;-80
2021/03/19 18:59:49;;;;;;;7.05;4.85;;;2.60;45.80;;;;;;4914102;29;20302;-81
2021/03/19 19:02:16;;;;;;;8.48;5.47;;;2.70;45.40;;;;;;4916667;29;20216;-80
2021/03/19 19:04:42;;;;;;;5.20;4.60;;;2.80;45.60;;;;;;4917084;29;20212;-80
2021/03/19 19:07:09;;;;;;;6.72;4.45;;;2.70;45.60;;;;;;4917029;29;20227;-79
2021/03/19 19:09:36;;;;;;;5.70;4.55;;;2.60;46.20;;;;;;4918120;29;20212;-79
2021/03/19 19:12:06;;;;;;;5.80;5.20;;;2.70;46.10;;;;;;4918698;29;20493;-80
2021/03/19 19:14:32;;;;;;;7.53;5.55;;;2.60;46.10;;;;;;4917918;29;20445;-79
2021/03/19 19:16:59;;;;;;;7.70;5.00;;;2.60;46.50;;;;;;4917570;29;20228;-80
2021/03/19 19:19:28;;;;;;;6.38;4.25;;;2.60;47.20;;;;;;4917934;29;20669;-81
2021/03/19 19:21:54;;;;;;;7.85;5.40;;;2.60;46.70;;;;;;4917548;29;20220;-81
2021/03/19 19:24:21;;;;;;;5.72;4.03;;;2.50;46.80;;;;;;4919640;29;20204;-79
2021/03/19 19:26:48;;;;;;;6.43;4.25;;;2.40;47.40;;;;;;4921074;29;20268;-80
2021/03/19 19:29:15;;;;;;;5.75;3.85;;;2.20;48.90;;;;;;4914264;29;20215;-80
2021/03/19 19:31:42;;;;;;;6.07;4.38;;;2.20;48.20;;;;;;4913876;29;20204;-81
2021/03/19 19:34:09;;;;;;;5.40;3.78;;;2.10;48.30;;;;;;4918906;29;20223;-80
2021/03/19 19:36:35;;;;;;;5.22;3.25;;;2.00;48.60;;;;;;4917015;29;20230;-81
2021/03/19 19:39:04;;;;;;;5.68;4.45;;;2.10;48.50;;;;;;4913957;29;20215;-82
2021/03/19 19:41:31;;;;;;;4.72;3.63;;;2.00;48.90;;;;;;4914022;29;20219;-82
2021/03/19 19:43:58;;;;;;;6.35;3.65;;;2.00;49.30;;;;;;4914133;29;20256;-81
2021/03/19 19:46:27;;;;;;;5.45;4.00;;;1.90;49.20;;;;;;4914449;29;20236;-81
2021/03/19 19:48:55;;;;;;;5.22;3.35;;;1.90;49.70;;;;;;4913835;29;20219;-80
2021/03/19 19:51:23;;;;;;;5.70;3.72;;;1.80;49.80;;;;;;4913938;29;20208;-81
2021/03/19 19:53:49;;;;;;;5.25;2.92;;;1.70;50.50;;;;;;4914789;29;20220;-82
2021/03/19 19:56:16;;;;;;;7.55;5.05;;;1.70;50.90;;;;;;4913877;29;20336;-80
2021/03/19 19:58:47;;;;;;;6.57;4.50;;;1.70;51.10;;;;;;4913416;29;20628;-82
2021/03/19 20:01:17;;;;;;;7.63;4.75;;;1.80;51.20;;;;;;4914943;29;20204;-81
2021/03/19 20:03:48;;;;;;;8.48;5.60;;;1.70;51.40;;;;;;4913426;29;20200;-82
